createdAt,value
2022-09-30T00:00:26.928Z,3.88
2022-09-30T00:01:26.990Z,3.92
2022-09-30T00:02:26.901Z,3.92
2022-09-30T00:03:26.892Z,3.81
2022-09-30T00:04:26.860Z,3.90
2022-09-30T00:05:26.854Z,3.89
2022-09-30T00:06:26.929Z,3.95
2022-09-30T00:07:26.844Z,4.00
2022-09-30T00:08:26.827Z,4.04
2022-09-30T00:09:26.983Z,3.96
2022-09-30T00:10:26.845Z,3.99
2022-09-30T00:11:26.859Z,3.99
2022-09-30T00:12:26.772Z,4.04
2022-09-30T00:13:26.774Z,4.10
2022-09-30T00:14:26.754Z,3.98
2022-09-30T00:15:26.744Z,4.11
2022-09-30T00:16:26.825Z,3.98
2022-09-30T00:17:26.769Z,4.13
2022-09-30T00:18:26.712Z,4.08
2022-09-30T00:19:26.699Z,4.11
2022-09-30T00:20:26.689Z,3.99
2022-09-30T00:21:26.784Z,4.14
2022-09-30T00:22:26.665Z,4.08
2022-09-30T00:23:26.749Z,4.10
2022-09-30T00:24:26.645Z,4.02
2022-09-30T00:25:26.660Z,4.10
2022-09-30T00:26:26.621Z,3.99
2022-09-30T00:27:26.622Z,3.98
2022-09-30T00:28:26.616Z,4.00
2022-09-30T00:29:26.694Z,4.04
2022-09-30T00:30:26.585Z,3.98
2022-09-30T00:31:26.642Z,3.92
2022-09-30T00:32:26.557Z,3.89
2022-09-30T00:33:26.545Z,3.86
2022-09-30T00:34:26.535Z,3.84
2022-09-30T00:35:26.629Z,3.84
2022-09-30T00:36:26.512Z,3.95
2022-09-30T00:37:26.515Z,3.81
2022-09-30T00:38:26.503Z,3.86
2022-09-30T00:39:26.480Z,3.89
2022-09-30T00:40:26.469Z,3.81
2022-09-30T00:41:26.489Z,3.88
2022-09-30T00:42:26.458Z,3.96
2022-09-30T00:43:26.452Z,3.95
2022-09-30T00:44:26.422Z,3.86
2022-09-30T00:45:26.410Z,3.86
2022-09-30T00:46:26.466Z,3.86
2022-09-30T00:47:26.433Z,3.90
2022-09-30T00:48:26.383Z,3.86
2022-09-30T00:49:26.387Z,3.92
2022-09-30T00:50:26.362Z,3.84
2022-09-30T00:51:26.348Z,3.84
2022-09-30T00:52:26.335Z,3.78
2022-09-30T00:53:26.386Z,3.93
2022-09-30T00:54:26.333Z,3.78
2022-09-30T00:55:26.312Z,3.82
2022-09-30T00:56:26.292Z,3.82
2022-09-30T00:57:26.306Z,3.81
2022-09-30T00:58:26.286Z,3.75
2022-09-30T00:59:26.545Z,3.71
2022-09-30T01:00:26.355Z,3.81
2022-09-30T01:01:26.267Z,3.80
2022-09-30T01:02:26.264Z,3.89
2022-09-30T01:03:26.225Z,3.81
2022-09-30T01:04:26.226Z,3.80
2022-09-30T01:05:26.289Z,3.86
2022-09-30T01:06:26.183Z,3.86
2022-09-30T01:07:26.177Z,3.82
2022-09-30T01:08:26.165Z,3.84
2022-09-30T01:09:26.166Z,3.78
2022-09-30T01:10:26.141Z,3.81
2022-09-30T01:11:26.234Z,3.82
2022-09-30T01:12:26.122Z,3.80
2022-09-30T01:13:26.133Z,3.86
2022-09-30T01:14:26.097Z,3.88
2022-09-30T01:15:26.084Z,3.86
2022-09-30T01:16:26.146Z,3.84
2022-09-30T01:17:26.157Z,3.99
2022-09-30T01:18:26.051Z,3.93
2022-09-30T01:19:26.042Z,4.04
2022-09-30T01:20:26.036Z,3.93
2022-09-30T01:21:26.023Z,3.86
2022-09-30T01:22:26.029Z,3.80
2022-09-30T01:23:26.073Z,3.86
2022-09-30T01:24:25.988Z,3.88
2022-09-30T01:25:25.977Z,3.80
2022-09-30T01:26:25.964Z,3.88
2022-09-30T01:27:25.955Z,3.74
2022-09-30T01:28:25.955Z,3.81
2022-09-30T01:29:25.989Z,3.81
2022-09-30T01:30:25.921Z,3.81
2022-09-30T01:31:25.960Z,3.92
2022-09-30T01:32:25.900Z,3.81
2022-09-30T01:33:26.155Z,3.95
2022-09-30T01:34:25.877Z,3.92
2022-09-30T01:35:25.929Z,3.92
2022-09-30T01:36:25.854Z,3.89
2022-09-30T01:37:25.893Z,3.90
2022-09-30T01:38:25.835Z,3.81
2022-09-30T01:39:25.836Z,3.81
2022-09-30T01:40:25.812Z,3.92
2022-09-30T01:41:25.853Z,3.77
2022-09-30T01:42:25.801Z,3.88
2022-09-30T01:43:25.785Z,3.96
2022-09-30T01:44:25.789Z,3.96
2022-09-30T01:45:25.785Z,3.98
2022-09-30T01:46:25.798Z,4.10
2022-09-30T01:47:25.740Z,3.98
2022-09-30T01:48:25.728Z,3.96
2022-09-30T01:49:25.723Z,3.95
2022-09-30T01:50:25.719Z,4.04
2022-09-30T01:51:25.690Z,4.06
2022-09-30T01:52:25.687Z,3.98
2022-09-30T01:53:25.675Z,4.02
2022-09-30T01:54:25.666Z,3.98
2022-09-30T01:55:25.648Z,3.99
2022-09-30T01:56:25.646Z,4.02
2022-09-30T01:57:25.627Z,3.99
2022-09-30T01:58:25.619Z,3.98
2022-09-30T01:59:25.603Z,4.07
2022-09-30T02:00:25.654Z,3.99
2022-09-30T02:01:25.620Z,3.92
2022-09-30T02:02:25.669Z,4.00
2022-09-30T02:03:25.561Z,3.95
2022-09-30T02:04:25.554Z,3.92
2022-09-30T02:05:25.552Z,3.96
2022-09-30T02:06:25.523Z,3.96
2022-09-30T02:07:25.529Z,3.90
2022-09-30T02:08:25.505Z,3.92
2022-09-30T02:09:25.675Z,4.00
2022-09-30T02:10:25.483Z,3.99
2022-09-30T02:11:25.469Z,3.99
2022-09-30T02:12:25.473Z,4.04
2022-09-30T02:13:25.447Z,3.96
2022-09-30T02:14:25.435Z,4.07
2022-09-30T02:15:25.428Z,4.00
2022-09-30T02:16:25.523Z,4.00
2022-09-30T02:17:25.536Z,4.02
2022-09-30T02:18:25.397Z,4.02
2022-09-30T02:19:25.465Z,4.02
2022-09-30T02:20:25.378Z,3.98
2022-09-30T02:21:25.367Z,4.14
2022-09-30T02:22:25.421Z,4.04
2022-09-30T02:23:25.350Z,3.99
2022-09-30T02:24:25.333Z,4.07
2022-09-30T02:25:25.321Z,4.00
2022-09-30T02:26:25.311Z,4.06
2022-09-30T02:27:25.346Z,3.99
2022-09-30T02:28:25.290Z,4.10
2022-09-30T02:29:25.284Z,3.93
2022-09-30T02:30:25.265Z,3.81
2022-09-30T02:31:25.307Z,3.98
2022-09-30T02:32:25.240Z,3.90
2022-09-30T02:33:25.335Z,3.86
2022-09-30T02:34:25.218Z,3.86
2022-09-30T02:35:25.226Z,3.80
2022-09-30T02:36:25.196Z,3.93
2022-09-30T02:37:25.186Z,3.88
2022-09-30T02:38:25.195Z,3.82
2022-09-30T02:39:25.246Z,3.82
2022-09-30T02:40:25.152Z,4.00
2022-09-30T02:41:25.165Z,3.99
2022-09-30T02:42:25.134Z,4.02
2022-09-30T02:43:25.120Z,3.93
2022-09-30T02:44:25.113Z,3.93
2022-09-30T02:45:25.180Z,3.88
2022-09-30T02:46:25.167Z,3.99
2022-09-30T02:47:25.080Z,3.96
2022-09-30T02:48:25.066Z,3.95
2022-09-30T02:49:25.077Z,3.96
2022-09-30T02:50:25.060Z,3.95
2022-09-30T02:51:25.136Z,3.95
2022-09-30T02:52:25.024Z,3.95
2022-09-30T02:53:25.017Z,3.92
2022-09-30T02:54:25.009Z,3.86
2022-09-30T02:55:24.993Z,3.82
2022-09-30T02:56:24.998Z,3.88
2022-09-30T02:57:25.040Z,3.81
2022-09-30T02:58:24.956Z,3.89
2022-09-30T02:59:24.946Z,4.06
2022-09-30T03:00:24.934Z,3.88
2022-09-30T03:01:24.926Z,3.92
2022-09-30T03:02:25.002Z,4.00
2022-09-30T03:03:25.072Z,3.86
2022-09-30T03:04:24.895Z,3.82
2022-09-30T03:05:24.920Z,3.82
2022-09-30T03:06:24.871Z,3.82
2022-09-30T03:07:24.868Z,3.82
2022-09-30T03:08:24.848Z,3.92
2022-09-30T03:09:25.022Z,3.81
2022-09-30T03:10:24.845Z,3.81
2022-09-30T03:11:24.816Z,3.81
2022-09-30T03:12:24.805Z,3.80
2022-09-30T03:13:24.794Z,3.75
2022-09-30T03:14:24.784Z,3.78
2022-09-30T03:15:24.863Z,3.86
2022-09-30T03:16:24.845Z,3.68
2022-09-30T03:17:24.756Z,3.71
2022-09-30T03:18:24.738Z,3.71
2022-09-30T03:19:24.861Z,3.77
2022-09-30T03:20:24.717Z,3.70
2022-09-30T03:21:24.755Z,3.77
2022-09-30T03:22:24.697Z,3.63
2022-09-30T03:23:24.685Z,3.60
2022-09-30T03:24:24.675Z,3.64
2022-09-30T03:25:24.665Z,3.72
2022-09-30T03:26:24.653Z,3.67
2022-09-30T03:27:24.657Z,3.64
2022-09-30T03:28:24.753Z,3.67
2022-09-30T03:29:24.680Z,3.70
2022-09-30T03:30:24.916Z,3.62
2022-09-30T03:31:24.716Z,3.64
2022-09-30T03:32:24.592Z,3.68
2022-09-30T03:33:24.587Z,3.59
2022-09-30T03:34:24.674Z,3.59
2022-09-30T03:35:24.566Z,3.49
2022-09-30T03:36:24.554Z,3.52
2022-09-30T03:37:24.571Z,3.49
2022-09-30T03:38:24.525Z,3.45
2022-09-30T03:39:24.511Z,3.50
2022-09-30T03:40:24.576Z,3.44
2022-09-30T03:41:24.499Z,3.41
2022-09-30T03:42:24.497Z,3.52
2022-09-30T03:43:24.469Z,3.44
2022-09-30T03:44:24.457Z,3.46
2022-09-30T03:45:24.446Z,3.37
2022-09-30T03:46:24.534Z,3.35
2022-09-30T03:47:24.427Z,3.30
2022-09-30T03:48:24.544Z,3.22
2022-09-30T03:49:24.405Z,3.20
2022-09-30T03:50:24.401Z,3.28
2022-09-30T03:51:24.386Z,3.19
2022-09-30T03:52:24.393Z,3.25
2022-09-30T03:53:24.393Z,3.31
2022-09-30T03:54:24.362Z,3.23
2022-09-30T03:55:24.342Z,3.23
2022-09-30T03:56:24.337Z,3.15
2022-09-30T03:57:24.322Z,3.10
2022-09-30T03:58:24.383Z,3.12
2022-09-30T03:59:24.313Z,3.02
2022-09-30T04:00:24.355Z,3.16
2022-09-30T04:01:24.275Z,3.01
2022-09-30T04:02:24.332Z,2.99
2022-09-30T04:03:24.257Z,3.01
2022-09-30T04:04:24.312Z,3.07
2022-09-30T04:05:24.227Z,2.99
2022-09-30T04:06:24.232Z,2.94
2022-09-30T04:07:24.211Z,2.98
2022-09-30T04:08:24.195Z,2.95
2022-09-30T04:09:24.505Z,2.94
2022-09-30T04:10:24.265Z,2.94
2022-09-30T04:11:24.178Z,2.76
2022-09-30T04:12:24.152Z,2.84
2022-09-30T04:13:24.155Z,2.92
2022-09-30T04:14:24.133Z,2.89
2022-09-30T04:15:24.120Z,2.86
2022-09-30T04:16:24.236Z,2.81
2022-09-30T04:17:24.115Z,2.86
2022-09-30T04:18:24.090Z,2.80
2022-09-30T04:19:24.156Z,2.84
2022-09-30T04:20:24.069Z,2.89
2022-09-30T04:21:24.058Z,2.86
2022-09-30T04:22:26.598Z,2.89
2022-09-30T04:23:24.035Z,2.84
2022-09-30T04:24:24.021Z,2.87
2022-09-30T04:25:24.034Z,2.95
2022-09-30T04:26:24.000Z,2.92
2022-09-30T04:27:23.989Z,2.90
2022-09-30T04:28:24.081Z,2.86
2022-09-30T04:29:24.151Z,2.89
2022-09-30T04:30:27.226Z,3.01
2022-09-30T04:31:25.043Z,3.04
2022-09-30T04:32:23.951Z,3.07
2022-09-30T04:33:23.925Z,2.89
2022-09-30T04:34:23.997Z,3.04
2022-09-30T04:35:23.908Z,2.98
2022-09-30T04:36:23.915Z,3.01
2022-09-30T04:37:23.887Z,3.12
2022-09-30T04:38:23.872Z,3.20
2022-09-30T04:39:24.023Z,3.13
2022-09-30T04:40:23.911Z,3.08
2022-09-30T04:41:23.864Z,3.13
2022-09-30T04:42:23.843Z,3.17
2022-09-30T04:43:23.815Z,3.15
2022-09-30T04:44:23.817Z,3.28
2022-09-30T04:45:23.820Z,3.22
2022-09-30T04:46:23.889Z,3.22
2022-09-30T04:47:23.791Z,3.30
2022-09-30T04:48:23.765Z,3.34
2022-09-30T04:49:24.165Z,3.28
2022-09-30T04:50:23.743Z,3.22
2022-09-30T04:51:23.729Z,3.30
2022-09-30T04:52:23.756Z,3.41
2022-09-30T04:53:23.817Z,3.31
2022-09-30T04:54:23.698Z,3.30
2022-09-30T04:55:23.688Z,3.35
2022-09-30T04:56:23.674Z,3.31
2022-09-30T04:57:23.689Z,3.44
2022-09-30T04:58:23.720Z,3.42
2022-09-30T04:59:23.903Z,3.45
2022-09-30T05:00:23.631Z,3.56
2022-09-30T05:01:23.668Z,3.54
2022-09-30T05:02:23.636Z,3.52
2022-09-30T05:03:23.603Z,3.59
2022-09-30T05:04:23.661Z,3.71
2022-09-30T05:05:23.595Z,3.53
2022-09-30T05:06:23.568Z,3.50
2022-09-30T05:07:23.560Z,3.50
2022-09-30T05:08:23.547Z,3.52
2022-09-30T05:09:23.768Z,3.45
2022-09-30T05:10:23.596Z,3.56
2022-09-30T05:11:23.527Z,3.50
2022-09-30T05:12:23.501Z,3.60
2022-09-30T05:13:23.515Z,3.53
2022-09-30T05:14:23.482Z,3.46
2022-09-30T05:15:23.468Z,3.52
2022-09-30T05:16:23.593Z,3.46
2022-09-30T05:17:23.449Z,3.42
2022-09-30T05:18:23.439Z,3.57
2022-09-30T05:19:23.574Z,3.56
2022-09-30T05:20:23.413Z,3.49
2022-09-30T05:21:23.418Z,3.56
2022-09-30T05:22:23.493Z,3.52
2022-09-30T05:23:23.381Z,3.54
2022-09-30T05:24:23.374Z,3.53
2022-09-30T05:25:23.362Z,3.52
2022-09-30T05:26:23.350Z,3.57
2022-09-30T05:27:23.350Z,3.46
2022-09-30T05:28:24.026Z,3.60
2022-09-30T05:29:23.456Z,3.59
2022-09-30T05:30:23.307Z,3.68
2022-09-30T05:31:23.418Z,3.84
2022-09-30T05:32:23.288Z,3.72
2022-09-30T05:33:23.278Z,3.78
2022-09-30T05:34:23.336Z,3.71
2022-09-30T05:35:23.264Z,3.78
2022-09-30T05:36:23.261Z,3.72
2022-09-30T05:37:23.232Z,3.72
2022-09-30T05:38:23.219Z,3.81
2022-09-30T05:39:23.311Z,3.71
2022-09-30T05:40:23.261Z,3.64
2022-09-30T05:41:23.188Z,3.80
2022-09-30T05:42:23.190Z,3.72
2022-09-30T05:43:23.163Z,3.71
2022-09-30T05:44:23.187Z,3.72
2022-09-30T05:45:23.169Z,3.77
2022-09-30T05:46:23.252Z,3.82
2022-09-30T05:47:23.126Z,3.77
2022-09-30T05:48:23.112Z,3.70
2022-09-30T05:49:23.193Z,3.82
2022-09-30T05:50:23.093Z,3.78
2022-09-30T05:51:23.090Z,3.80
2022-09-30T05:52:23.176Z,3.72
2022-09-30T05:53:23.055Z,3.77
2022-09-30T05:54:23.043Z,3.72
2022-09-30T05:55:23.034Z,3.80
2022-09-30T05:56:23.036Z,3.82
2022-09-30T05:57:23.013Z,3.86
2022-09-30T05:58:23.089Z,3.90
2022-09-30T05:59:23.152Z,3.98
2022-09-30T06:00:22.983Z,3.99
2022-09-30T06:01:23.032Z,3.92
2022-09-30T06:02:23.082Z,3.95
2022-09-30T06:03:22.968Z,4.00
2022-09-30T06:04:22.987Z,3.92
2022-09-30T06:05:22.930Z,3.99
2022-09-30T06:06:22.916Z,3.96
2022-09-30T06:07:22.904Z,3.99
2022-09-30T06:08:22.896Z,3.95
2022-09-30T06:09:23.186Z,3.92
2022-09-30T06:10:22.924Z,3.95
2022-09-30T06:11:22.865Z,3.90
2022-09-30T06:12:22.850Z,3.81
2022-09-30T06:13:22.858Z,3.81
2022-09-30T06:14:22.830Z,3.92
2022-09-30T06:15:22.816Z,3.81
2022-09-30T06:16:22.929Z,3.88
2022-09-30T06:17:22.824Z,3.88
2022-09-30T06:18:22.788Z,3.89
2022-09-30T06:19:22.899Z,3.84
2022-09-30T06:20:22.765Z,3.96
2022-09-30T06:21:22.773Z,3.82
2022-09-30T06:22:22.885Z,3.88
2022-09-30T06:23:22.731Z,3.90
2022-09-30T06:24:22.722Z,3.82
2022-09-30T06:25:22.713Z,3.84
2022-09-30T06:26:22.698Z,3.95
2022-09-30T06:27:22.698Z,3.98
2022-09-30T06:28:22.741Z,3.98
2022-09-30T06:29:22.759Z,4.00
2022-09-30T06:30:22.659Z,3.90
2022-09-30T06:31:22.771Z,3.93
2022-09-30T06:32:22.645Z,3.92
2022-09-30T06:33:22.651Z,3.90
2022-09-30T06:34:22.617Z,3.95
2022-09-30T06:35:22.815Z,3.98
2022-09-30T06:36:22.664Z,3.98
2022-09-30T06:37:22.592Z,4.04
2022-09-30T06:38:22.569Z,4.07
2022-09-30T06:39:22.704Z,4.06
2022-09-30T06:40:22.548Z,4.04
2022-09-30T06:41:22.541Z,4.04
2022-09-30T06:42:22.616Z,4.13
2022-09-30T06:43:22.516Z,4.11
2022-09-30T06:44:22.586Z,4.17
2022-09-30T06:45:31.105Z,4.10
2022-09-30T06:46:28.474Z,4.11
2022-09-30T06:47:25.887Z,4.25
2022-09-30T06:48:35.678Z,4.32
2022-09-30T06:49:23.651Z,4.21
2022-09-30T06:50:25.737Z,4.20
2022-09-30T06:51:22.429Z,4.06
2022-09-30T06:52:22.419Z,4.24
2022-09-30T06:53:22.416Z,4.14
2022-09-30T06:54:22.395Z,4.31
2022-09-30T06:55:22.393Z,4.34
2022-09-30T06:56:22.454Z,4.34
2022-09-30T06:57:22.381Z,4.43
2022-09-30T06:58:22.351Z,4.42
2022-09-30T06:59:22.475Z,4.49
2022-09-30T07:00:22.332Z,4.28
2022-09-30T07:01:22.385Z,4.31
2022-09-30T07:02:22.452Z,4.51
2022-09-30T07:03:22.307Z,4.32
2022-09-30T07:04:22.292Z,4.42
2022-09-30T07:05:22.297Z,4.44
2022-09-30T07:06:22.268Z,4.39
2022-09-30T07:07:22.332Z,4.50
2022-09-30T07:08:22.310Z,4.39
2022-09-30T07:09:22.657Z,4.47
2022-09-30T07:10:22.225Z,4.44
2022-09-30T07:11:22.209Z,4.51
2022-09-30T07:12:22.209Z,4.59
2022-09-30T07:13:22.187Z,4.65
2022-09-30T07:14:22.241Z,4.71
2022-09-30T07:15:22.183Z,4.61
2022-09-30T07:16:22.250Z,4.57
2022-09-30T07:17:22.144Z,4.71
2022-09-30T07:18:22.138Z,4.65
2022-09-30T07:19:22.206Z,4.53
2022-09-30T07:20:22.185Z,4.62
2022-09-30T07:21:22.135Z,4.72
2022-09-30T07:22:22.091Z,4.72
2022-09-30T07:23:25.907Z,4.80
2022-09-30T07:24:22.069Z,4.74
2022-09-30T07:25:22.060Z,4.77
2022-09-30T07:26:22.127Z,4.84
2022-09-30T07:27:22.049Z,4.94
2022-09-30T07:28:22.026Z,4.88
2022-09-30T07:29:22.014Z,4.80
2022-09-30T07:30:27.119Z,4.79
2022-09-30T07:31:37.230Z,4.86
2022-09-30T07:32:23.267Z,4.86
2022-09-30T07:33:21.969Z,4.86
2022-09-30T07:34:21.956Z,4.91
2022-09-30T07:35:21.949Z,4.80
2022-09-30T07:36:21.938Z,4.75
2022-09-30T07:37:22.021Z,4.71
2022-09-30T07:38:22.019Z,4.68
2022-09-30T07:39:21.907Z,4.57
2022-09-30T07:40:21.895Z,4.54
2022-09-30T07:41:21.904Z,4.46
2022-09-30T07:42:22.997Z,4.39
2022-09-30T07:43:21.862Z,4.56
2022-09-30T07:44:21.933Z,4.50
2022-09-30T07:45:21.837Z,4.56
2022-09-30T07:46:21.829Z,4.50
2022-09-30T07:47:21.836Z,4.53
2022-09-30T07:48:21.808Z,4.69
2022-09-30T07:49:21.813Z,4.61
2022-09-30T07:50:21.797Z,4.59
2022-09-30T07:51:21.775Z,4.44
2022-09-30T07:52:21.834Z,4.44
2022-09-30T07:53:21.787Z,4.53
2022-09-30T07:54:21.739Z,4.50
2022-09-30T07:55:21.729Z,4.43
2022-09-30T07:56:21.789Z,4.46
2022-09-30T07:57:21.733Z,4.49
2022-09-30T07:58:21.697Z,4.42
2022-09-30T07:59:21.718Z,4.53
2022-09-30T08:00:41.775Z,4.56
2022-09-30T08:01:22.747Z,4.68
2022-09-30T08:02:21.766Z,4.61
2022-09-30T08:03:21.867Z,4.72
2022-09-30T08:04:21.629Z,4.65
2022-09-30T08:05:21.621Z,4.62
2022-09-30T08:06:21.632Z,4.68
2022-09-30T08:07:21.599Z,4.61
2022-09-30T08:08:21.663Z,4.59
2022-09-30T08:09:21.837Z,4.51
2022-09-30T08:10:21.569Z,4.53
2022-09-30T08:11:21.552Z,4.54
2022-09-30T08:12:21.544Z,4.56
2022-09-30T08:13:21.581Z,4.68
2022-09-30T08:14:21.595Z,4.65
2022-09-30T08:15:21.603Z,4.65
2022-09-30T08:16:21.535Z,4.80
2022-09-30T08:17:21.492Z,4.75
2022-09-30T08:18:21.480Z,4.69
2022-09-30T08:19:21.465Z,4.72
2022-09-30T08:20:22.591Z,4.65
2022-09-30T08:21:21.534Z,4.50
2022-09-30T08:22:21.435Z,4.49
2022-09-30T08:23:21.424Z,4.50
2022-09-30T08:24:21.473Z,4.43
2022-09-30T08:25:21.435Z,4.36
2022-09-30T08:26:21.404Z,4.28
2022-09-30T08:27:21.574Z,4.34
2022-09-30T08:28:21.370Z,4.25
2022-09-30T08:29:36.085Z,4.28
2022-09-30T08:30:22.355Z,4.26
2022-09-30T08:31:21.498Z,4.31
2022-09-30T08:32:21.323Z,4.38
2022-09-30T08:33:21.320Z,4.39
2022-09-30T08:34:21.413Z,4.32
2022-09-30T08:35:21.323Z,4.39
2022-09-30T08:36:21.296Z,4.36
2022-09-30T08:37:21.284Z,4.46
2022-09-30T08:38:21.260Z,4.39
2022-09-30T08:39:21.342Z,4.38
2022-09-30T08:40:21.390Z,4.24
2022-09-30T08:41:21.252Z,4.36
2022-09-30T08:42:38.734Z,4.32
2022-09-30T08:43:22.209Z,4.44
2022-09-30T08:44:21.208Z,4.43
2022-09-30T08:45:21.290Z,4.42
2022-09-30T08:46:21.220Z,4.47
2022-09-30T08:47:21.172Z,4.56
2022-09-30T08:48:21.190Z,4.57
2022-09-30T08:49:21.261Z,4.50
2022-09-30T08:50:21.153Z,4.34
2022-09-30T08:51:21.182Z,4.36
2022-09-30T08:52:30.589Z,4.46
2022-09-30T08:53:22.097Z,4.50
2022-09-30T08:54:21.098Z,4.54
2022-09-30T08:55:21.086Z,4.57
2022-09-30T08:56:21.067Z,4.49
2022-09-30T08:57:21.128Z,4.67
2022-09-30T08:58:21.042Z,4.67
2022-09-30T08:59:21.082Z,4.59
2022-09-30T09:00:21.134Z,4.67
2022-09-30T09:01:21.092Z,4.72
2022-09-30T09:02:21.345Z,4.75
2022-09-30T09:03:20.983Z,4.67
2022-09-30T09:04:21.168Z,4.74
2022-09-30T09:05:20.975Z,4.69
2022-09-30T09:06:20.957Z,4.56
2022-09-30T09:07:21.008Z,4.65
2022-09-30T09:08:20.933Z,4.59
2022-09-30T09:09:20.970Z,4.62
2022-09-30T09:10:20.987Z,4.53
2022-09-30T09:11:20.901Z,4.56
2022-09-30T09:12:20.889Z,4.61
2022-09-30T09:13:20.905Z,4.72
2022-09-30T09:14:20.881Z,4.71
2022-09-30T09:15:20.855Z,4.77
2022-09-30T09:16:20.953Z,4.71
2022-09-30T09:17:20.838Z,4.68
2022-09-30T09:18:24.877Z,4.75
2022-09-30T09:19:20.810Z,4.87
2022-09-30T09:20:20.812Z,4.80
2022-09-30T09:21:20.789Z,4.96
2022-09-30T09:22:24.615Z,4.71
2022-09-30T09:23:20.770Z,4.67
2022-09-30T09:24:20.756Z,4.74
2022-09-30T09:25:20.747Z,4.75
2022-09-30T09:26:20.754Z,4.80
2022-09-30T09:27:20.814Z,4.79
2022-09-30T09:28:20.857Z,4.77
2022-09-30T09:29:20.800Z,4.84
2022-09-30T09:30:20.693Z,4.99
2022-09-30T09:31:20.786Z,4.99
2022-09-30T09:32:20.683Z,5.05
2022-09-30T09:33:20.734Z,5.01
2022-09-30T09:34:20.652Z,4.99
2022-09-30T09:35:20.636Z,4.91
2022-09-30T09:36:20.625Z,5.11
2022-09-30T09:37:20.613Z,5.06
2022-09-30T09:38:20.613Z,4.94
2022-09-30T09:39:20.706Z,5.05
2022-09-30T09:40:20.581Z,4.94
2022-09-30T09:41:20.583Z,4.90
2022-09-30T09:42:20.561Z,5.01
2022-09-30T09:43:20.547Z,4.94
2022-09-30T09:44:20.562Z,4.96
2022-09-30T09:45:20.594Z,4.97
2022-09-30T09:46:20.578Z,4.93
2022-09-30T09:47:20.515Z,4.96
2022-09-30T09:48:20.506Z,4.77
2022-09-30T09:49:20.486Z,5.02
2022-09-30T09:50:20.474Z,4.90
2022-09-30T09:51:20.523Z,5.05
2022-09-30T09:52:20.446Z,4.96
2022-09-30T09:53:20.449Z,4.96
2022-09-30T09:54:20.425Z,4.99
2022-09-30T09:55:20.422Z,4.83
2022-09-30T09:56:20.406Z,4.75
2022-09-30T09:57:20.473Z,4.80
2022-09-30T09:58:20.387Z,4.93
2022-09-30T09:59:20.592Z,4.96
2022-09-30T10:00:20.361Z,4.96
2022-09-30T10:01:20.440Z,5.08
2022-09-30T10:02:20.367Z,5.02
2022-09-30T10:03:20.417Z,5.12
2022-09-30T10:04:20.322Z,5.19
2022-09-30T10:05:20.306Z,5.15
2022-09-30T10:06:20.297Z,5.15
2022-09-30T10:07:20.287Z,5.06
2022-09-30T10:08:20.287Z,5.08
2022-09-30T10:09:20.406Z,4.93
2022-09-30T10:10:23.701Z,5.08
2022-09-30T10:11:20.242Z,5.01
2022-09-30T10:12:20.231Z,5.02
2022-09-30T10:13:20.878Z,5.08
2022-09-30T10:14:20.241Z,5.14
2022-09-30T10:15:20.270Z,5.14
2022-09-30T10:16:20.263Z,5.17
2022-09-30T10:17:20.207Z,5.40
2022-09-30T10:18:20.185Z,5.42
2022-09-30T10:19:20.162Z,5.47
2022-09-30T10:20:20.144Z,5.24
2022-09-30T10:21:20.213Z,5.37
2022-09-30T10:22:20.120Z,5.15
2022-09-30T10:23:20.109Z,5.24
2022-09-30T10:24:20.101Z,5.37
2022-09-30T10:25:20.100Z,5.40
2022-09-30T10:26:20.178Z,5.24
2022-09-30T10:27:20.131Z,5.35
2022-09-30T10:28:20.200Z,5.26
2022-09-30T10:29:20.069Z,5.22
2022-09-30T10:30:20.036Z,5.26
2022-09-30T10:31:20.128Z,5.15
2022-09-30T10:32:20.084Z,5.22
2022-09-30T10:33:20.070Z,5.09
2022-09-30T10:34:19.990Z,5.17
2022-09-30T10:35:19.990Z,5.30
2022-09-30T10:36:19.968Z,5.37
2022-09-30T10:37:19.958Z,5.44
2022-09-30T10:38:19.945Z,5.24
2022-09-30T10:39:20.031Z,5.42
2022-09-30T10:40:19.928Z,5.38
2022-09-30T10:41:19.927Z,5.49
2022-09-30T10:42:25.089Z,5.33
2022-09-30T10:43:20.888Z,5.27
2022-09-30T10:44:19.876Z,5.20
2022-09-30T10:45:19.939Z,5.35
2022-09-30T10:46:26.253Z,5.32
2022-09-30T10:47:20.848Z,5.37
2022-09-30T10:48:19.834Z,5.30
2022-09-30T10:49:19.852Z,5.29
2022-09-30T10:50:19.812Z,5.30
2022-09-30T10:51:19.895Z,5.37
2022-09-30T10:52:19.802Z,5.35
2022-09-30T10:53:19.778Z,5.17
2022-09-30T10:54:19.774Z,5.26
2022-09-30T10:55:19.761Z,5.19
2022-09-30T10:56:19.749Z,5.12
2022-09-30T10:57:19.851Z,5.14
2022-09-30T10:58:19.727Z,5.24
2022-09-30T10:59:19.724Z,5.29
2022-09-30T11:00:19.714Z,5.29
2022-09-30T11:01:19.852Z,5.30
2022-09-30T11:02:22.816Z,5.27
2022-09-30T11:03:19.842Z,5.29
2022-09-30T11:04:19.717Z,5.17
2022-09-30T11:05:19.838Z,5.26
2022-09-30T11:06:19.639Z,5.32
2022-09-30T11:07:19.638Z,5.37
2022-09-30T11:08:19.628Z,5.40
2022-09-30T11:09:19.606Z,5.26
2022-09-30T11:10:19.698Z,5.38
2022-09-30T11:11:19.597Z,5.45
2022-09-30T11:12:19.844Z,5.24
2022-09-30T11:13:19.595Z,5.27
2022-09-30T11:14:19.549Z,5.35
2022-09-30T11:15:19.538Z,5.44
2022-09-30T11:16:19.609Z,5.33
2022-09-30T11:17:22.710Z,5.40
2022-09-30T11:18:19.518Z,5.30
2022-09-30T11:19:19.557Z,5.44
2022-09-30T11:20:19.490Z,5.48
2022-09-30T11:21:19.498Z,5.47
2022-09-30T11:22:19.533Z,5.51
2022-09-30T11:23:19.453Z,5.52
2022-09-30T11:24:19.458Z,5.49
2022-09-30T11:25:19.429Z,5.55
2022-09-30T11:26:19.422Z,5.47
2022-09-30T11:27:19.414Z,5.41
2022-09-30T11:28:19.494Z,5.56
2022-09-30T11:29:19.386Z,5.67
2022-09-30T11:30:19.391Z,5.59
2022-09-30T11:31:19.403Z,5.51
2022-09-30T11:32:19.358Z,5.60
2022-09-30T11:33:19.349Z,5.52
2022-09-30T11:34:19.341Z,5.60
2022-09-30T11:35:19.325Z,5.67
2022-09-30T11:36:19.325Z,5.55
2022-09-30T11:37:19.336Z,5.73
2022-09-30T11:38:19.287Z,5.62
2022-09-30T11:39:19.280Z,5.58
2022-09-30T11:40:19.265Z,5.67
2022-09-30T11:41:19.310Z,5.67
2022-09-30T11:42:19.346Z,5.62
2022-09-30T11:43:19.239Z,5.59
2022-09-30T11:44:19.252Z,5.66
2022-09-30T11:45:19.211Z,5.60
2022-09-30T11:46:19.362Z,5.75
2022-09-30T11:47:19.196Z,5.83
2022-09-30T11:48:19.199Z,5.65
2022-09-30T11:49:19.186Z,5.77
2022-09-30T11:50:19.165Z,5.78
2022-09-30T11:51:19.153Z,5.60
2022-09-30T11:52:19.133Z,5.55
2022-09-30T11:53:19.263Z,5.60
2022-09-30T11:54:19.113Z,5.75
2022-09-30T11:55:19.156Z,5.77
2022-09-30T11:56:19.095Z,5.66
2022-09-30T11:57:19.078Z,5.49
2022-09-30T11:58:40.059Z,5.63
2022-09-30T11:59:20.069Z,5.49
2022-09-30T12:00:19.046Z,5.70
2022-09-30T12:01:19.129Z,5.78
2022-09-30T12:02:19.130Z,5.77
2022-09-30T12:03:19.065Z,5.95
2022-09-30T12:04:19.008Z,5.96
2022-09-30T12:05:19.008Z,6.02
2022-09-30T12:06:18.984Z,5.90
2022-09-30T12:07:19.142Z,5.66
2022-09-30T12:08:18.965Z,5.75
2022-09-30T12:09:18.995Z,5.81
2022-09-30T12:10:18.939Z,5.62
2022-09-30T12:11:18.930Z,5.48
2022-09-30T12:12:18.914Z,5.59
2022-09-30T12:13:18.996Z,5.58
2022-09-30T12:14:18.908Z,5.62
2022-09-30T12:15:18.898Z,5.58
2022-09-30T12:16:18.911Z,5.48
2022-09-30T12:17:18.885Z,5.58
2022-09-30T12:18:18.854Z,5.49
2022-09-30T12:19:24.449Z,5.49
2022-09-30T12:20:19.827Z,5.52
2022-09-30T12:21:18.821Z,5.66
2022-09-30T12:22:18.809Z,5.66
2022-09-30T12:23:18.907Z,5.55
2022-09-30T12:24:18.798Z,5.73
2022-09-30T12:25:18.813Z,5.74
2022-09-30T12:26:18.772Z,5.44
2022-09-30T12:27:18.757Z,5.63
2022-09-30T12:28:18.796Z,5.63
2022-09-30T12:29:18.746Z,5.56
2022-09-30T12:30:18.796Z,5.42
2022-09-30T12:31:18.783Z,5.51
2022-09-30T12:32:18.710Z,5.47
2022-09-30T12:33:18.690Z,5.44
2022-09-30T12:34:18.698Z,5.47
2022-09-30T12:35:18.682Z,5.45
2022-09-30T12:36:18.736Z,5.49
2022-09-30T12:37:18.646Z,5.38
2022-09-30T12:38:18.641Z,5.52
2022-09-30T12:39:18.664Z,5.45
2022-09-30T12:40:18.636Z,5.42
2022-09-30T12:41:18.627Z,5.42
2022-09-30T12:42:18.657Z,5.47
2022-09-30T12:43:18.662Z,5.60
2022-09-30T12:44:18.710Z,5.63
2022-09-30T12:45:18.627Z,5.56
2022-09-30T12:46:18.641Z,5.45
2022-09-30T12:47:18.543Z,5.51
2022-09-30T12:48:18.549Z,5.37
2022-09-30T12:49:18.522Z,5.55
2022-09-30T12:50:18.571Z,5.44
2022-09-30T12:51:18.501Z,5.33
2022-09-30T12:52:18.511Z,5.38
2022-09-30T12:53:18.545Z,5.44
2022-09-30T12:54:18.484Z,5.26
2022-09-30T12:55:18.486Z,5.24
2022-09-30T12:56:18.443Z,5.38
2022-09-30T12:57:18.455Z,5.27
2022-09-30T12:58:18.480Z,5.29
2022-09-30T12:59:18.410Z,5.17
2022-09-30T13:00:18.432Z,5.20
2022-09-30T13:01:18.489Z,5.04
2022-09-30T13:02:18.419Z,4.99
2022-09-30T13:03:18.536Z,5.08
2022-09-30T13:04:18.369Z,4.97
2022-09-30T13:05:18.489Z,5.12
2022-09-30T13:06:20.869Z,5.17
2022-09-30T13:07:18.323Z,5.11
2022-09-30T13:08:22.751Z,5.08
2022-09-30T13:09:19.294Z,5.11
2022-09-30T13:10:18.300Z,5.11
2022-09-30T13:11:18.348Z,5.09
2022-09-30T13:12:18.267Z,5.08
2022-09-30T13:13:18.331Z,5.11
2022-09-30T13:14:20.302Z,5.05
2022-09-30T13:15:19.267Z,5.08
2022-09-30T13:16:18.294Z,5.09
2022-09-30T13:17:18.287Z,4.99
2022-09-30T13:18:18.200Z,4.93